sensor_id;sensor_type;location;lat;lon;timestamp;pressure;altitude;pressure_sealevel;temperature;humidity
45074;BME280;31570;51.688;5.860;2022-08-19T00:01:37;101178.84;;;27.02;49.58
45074;BME280;31570;51.688;5.860;2022-08-19T00:04:06;101176.56;;;27.06;49.48
45074;BME280;31570;51.688;5.860;2022-08-19T00:06:33;101177.81;;;27.03;49.62
45074;BME280;31570;51.688;5.860;2022-08-19T00:09:04;101173.34;;;27.02;49.29
45074;BME280;31570;51.688;5.860;2022-08-19T00:11:30;101172.34;;;27.03;49.24
45074;BME280;31570;51.688;5.860;2022-08-19T00:13:57;101178.84;;;27.02;49.46
45074;BME280;31570;51.688;5.860;2022-08-19T00:16:24;101177.81;;;27.03;49.16
45074;BME280;31570;51.688;5.860;2022-08-19T00:18:52;101182.47;;;27.03;49.19
45074;BME280;31570;51.688;5.860;2022-08-19T00:21:19;101174.41;;;27.01;49.63
45074;BME280;31570;51.688;5.860;2022-08-19T00:23:46;101186.22;;;27.02;49.37
45074;BME280;31570;51.688;5.860;2022-08-19T00:26:13;101189.19;;;27.00;49.32
45074;BME280;31570;51.688;5.860;2022-08-19T00:28:40;101182.84;;;27.00;49.42
45074;BME280;31570;51.688;5.860;2022-08-19T00:31:06;101178.19;;;27.00;49.26
45074;BME280;31570;51.688;5.860;2022-08-19T00:33:34;101179.91;;;27.01;49.46
45074;BME280;31570;51.688;5.860;2022-08-19T00:36:03;101184.53;;;27.01;49.04
45074;BME280;31570;51.688;5.860;2022-08-19T00:38:30;101184.72;;;26.99;49.18
45074;BME280;31570;51.688;5.860;2022-08-19T00:41:02;101180.25;;;26.98;49.24
45074;BME280;31570;51.688;5.860;2022-08-19T00:43:37;101176.47;;;26.99;48.94
45074;BME280;31570;51.688;5.860;2022-08-19T00:46:07;101180.25;;;26.98;49.28
45074;BME280;31570;51.688;5.860;2022-08-19T00:48:33;101177.72;;;26.97;49.12
45074;BME280;31570;51.688;5.860;2022-08-19T00:51:00;101180.25;;;26.98;49.30
45074;BME280;31570;51.688;5.860;2022-08-19T00:53:27;101179.41;;;26.98;49.34
45074;BME280;31570;51.688;5.860;2022-08-19T00:55:55;101177.72;;;26.97;49.07
45074;BME280;31570;51.688;5.860;2022-08-19T00:58:24;101176.88;;;26.96;49.18
45074;BME280;31570;51.688;5.860;2022-08-19T01:00:52;101179.41;;;26.98;49.28
45074;BME280;31570;51.688;5.860;2022-08-19T01:03:19;101183.22;;;26.97;49.08
45074;BME280;31570;51.688;5.860;2022-08-19T01:05:46;101191.63;;;26.95;49.02
45074;BME280;31570;51.688;5.860;2022-08-19T01:08:14;101183.38;;;26.95;49.41
45074;BME280;31570;51.688;5.860;2022-08-19T01:10:49;101190.78;;;26.95;48.89
45074;BME280;31570;51.688;5.860;2022-08-19T01:13:17;101188.03;;;26.95;49.20
45074;BME280;31570;51.688;5.860;2022-08-19T01:15:55;101193.72;;;26.93;49.01
45074;BME280;31570;51.688;5.860;2022-08-19T01:18:22;101197.09;;;26.95;48.85
45074;BME280;31570;51.688;5.860;2022-08-19T01:20:49;101197.19;;;27.02;49.18
45074;BME280;31570;51.688;5.860;2022-08-19T01:23:18;101196.34;;;27.01;49.05
45074;BME280;31570;51.688;5.860;2022-08-19T01:25:48;101191.91;;;27.00;49.01
45074;BME280;31570;51.688;5.860;2022-08-19T01:28:22;101189.19;;;27.00;49.22
45074;BME280;31570;51.688;5.860;2022-08-19T01:31:08;101185.59;;;27.00;49.25
45074;BME280;31570;51.688;5.860;2022-08-19T01:33:53;101184.34;;;27.02;48.88
45074;BME280;31570;51.688;5.860;2022-08-19T01:36:26;101184.53;;;27.01;49.17
45074;BME280;31570;51.688;5.860;2022-08-19T01:38:53;101182.94;;;27.07;48.98
45074;BME280;31570;51.688;5.860;2022-08-19T01:41:22;101188.81;;;27.03;48.65
45074;BME280;31570;51.688;5.860;2022-08-19T01:43:50;101181.22;;;27.06;48.98
45074;BME280;31570;51.688;5.860;2022-08-19T01:46:37;101187.53;;;27.06;48.58
45074;BME280;31570;51.688;5.860;2022-08-19T01:49:07;101189.44;;;27.06;49.00
45074;BME280;31570;51.688;5.860;2022-08-19T01:51:34;101190.28;;;27.06;48.68
45074;BME280;31570;51.688;5.860;2022-08-19T01:54:06;101194.56;;;27.09;48.89
45074;BME280;31570;51.688;5.860;2022-08-19T01:56:32;101199.03;;;27.10;48.71
45074;BME280;31570;51.688;5.860;2022-08-19T01:59:05;101200.25;;;27.07;48.96
45074;BME280;31570;51.688;5.860;2022-08-19T02:01:35;101197.88;;;27.04;48.97
45074;BME280;31570;51.688;5.860;2022-08-19T02:04:04;101206.97;;;27.04;49.07
45074;BME280;31570;51.688;5.860;2022-08-19T02:06:31;101206.97;;;27.04;48.69
45074;BME280;31570;51.688;5.860;2022-08-19T02:08:59;101204.22;;;27.04;48.78
45074;BME280;31570;51.688;5.860;2022-08-19T02:11:31;101203.16;;;27.06;49.03
45074;BME280;31570;51.688;5.860;2022-08-19T02:14:03;101206.09;;;27.04;49.10
45074;BME280;31570;51.688;5.860;2022-08-19T02:16:33;101205.91;;;27.06;48.86
45074;BME280;31570;51.688;5.860;2022-08-19T02:18:59;101217.56;;;27.08;48.65
45074;BME280;31570;51.688;5.860;2022-08-19T02:21:29;101213.66;;;27.02;48.72
45074;BME280;31570;51.688;5.860;2022-08-19T02:23:56;101206.28;;;27.02;48.88
45074;BME280;31570;51.688;5.860;2022-08-19T02:26:22;101201.66;;;27.03;49.08
45074;BME280;31570;51.688;5.860;2022-08-19T02:28:49;101205.25;;;27.03;48.87
45074;BME280;31570;51.688;5.860;2022-08-19T02:31:17;101203.53;;;27.02;49.10
45074;BME280;31570;51.688;5.860;2022-08-19T02:33:44;101198.94;;;27.03;48.91
45074;BME280;31570;51.688;5.860;2022-08-19T02:36:11;101204.41;;;27.03;49.16
45074;BME280;31570;51.688;5.860;2022-08-19T02:38:38;101208.66;;;27.06;49.02
45074;BME280;31570;51.688;5.860;2022-08-19T02:41:06;101211.59;;;27.04;48.70
45074;BME280;31570;51.688;5.860;2022-08-19T02:43:33;101215.56;;;27.01;48.88
45074;BME280;31570;51.688;5.860;2022-08-19T02:48:48;101217.81;;;26.98;48.89
45074;BME280;31570;51.688;5.860;2022-08-19T02:51:20;101222.09;;;27.00;49.00
45074;BME280;31570;51.688;5.860;2022-08-19T02:53:47;101222.09;;;27.00;49.01
45074;BME280;31570;51.688;5.860;2022-08-19T02:56:14;101227.22;;;27.03;48.77
45074;BME280;31570;51.688;5.860;2022-08-19T02:58:41;101216.78;;;26.99;49.08
45074;BME280;31570;51.688;5.860;2022-08-19T03:01:09;101222.47;;;26.97;49.01
45074;BME280;31570;51.688;5.860;2022-08-19T03:03:37;101214.41;;;26.96;48.94
45074;BME280;31570;51.688;5.860;2022-08-19T03:06:07;101206.84;;;26.98;48.93
45074;BME280;31570;51.688;5.860;2022-08-19T03:08:34;101209.41;;;26.99;49.19
45074;BME280;31570;51.688;5.860;2022-08-19T03:11:01;101209.41;;;26.99;49.00
45074;BME280;31570;51.688;5.860;2022-08-19T03:13:27;101215.28;;;26.96;49.01
45074;BME280;31570;51.688;5.860;2022-08-19T03:15:54;101216.97;;;26.97;48.96
45074;BME280;31570;51.688;5.860;2022-08-19T03:18:20;101220.94;;;26.95;49.04
45074;BME280;31570;51.688;5.860;2022-08-19T03:20:49;101213.09;;;26.92;48.98
45074;BME280;31570;51.688;5.860;2022-08-19T03:23:16;101215.19;;;26.90;49.18
45074;BME280;31570;51.688;5.860;2022-08-19T03:25:44;101217.34;;;26.94;49.43
45074;BME280;31570;51.688;5.860;2022-08-19T03:28:12;101227.47;;;26.94;48.88
45074;BME280;31570;51.688;5.860;2022-08-19T03:30:39;101222.38;;;26.91;49.11
45074;BME280;31570;51.688;5.860;2022-08-19T03:33:09;101227.19;;;26.89;49.12
45074;BME280;31570;51.688;5.860;2022-08-19T03:35:43;101225.97;;;26.91;49.39
45074;BME280;31570;51.688;5.860;2022-08-19T03:38:11;101225.69;;;26.86;49.60
45074;BME280;31570;51.688;5.860;2022-08-19T03:40:37;101236.44;;;26.88;49.45
45074;BME280;31570;51.688;5.860;2022-08-19T03:43:03;101228.03;;;26.89;49.13
45074;BME280;31570;51.688;5.860;2022-08-19T03:45:31;101227.00;;;26.90;49.39
45074;BME280;31570;51.688;5.860;2022-08-19T03:47:57;101218.09;;;26.88;49.44
45074;BME280;31570;51.688;5.860;2022-08-19T03:50:23;101218.09;;;26.88;49.22
45074;BME280;31570;51.688;5.860;2022-08-19T03:52:50;101210.34;;;26.92;49.03
45074;BME280;31570;51.688;5.860;2022-08-19T03:55:18;101214.50;;;26.88;49.39
45074;BME280;31570;51.688;5.860;2022-08-19T03:57:44;101215.34;;;26.88;49.16
45074;BME280;31570;51.688;5.860;2022-08-19T04:00:12;101220.19;;;26.86;49.35
45074;BME280;31570;51.688;5.860;2022-08-19T04:02:40;101219.31;;;26.86;49.28
45074;BME280;31570;51.688;5.860;2022-08-19T04:05:06;101216.78;;;26.84;49.54
45074;BME280;31570;51.688;5.860;2022-08-19T04:07:34;101225.69;;;26.86;49.11
45074;BME280;31570;51.688;5.860;2022-08-19T04:10:00;101223.09;;;26.85;49.57
45074;BME280;31570;51.688;5.860;2022-08-19T04:12:27;101223.94;;;26.85;49.40
45074;BME280;31570;51.688;5.860;2022-08-19T04:14:54;101220.38;;;26.85;49.18
45074;BME280;31570;51.688;5.860;2022-08-19T04:17:20;101218.00;;;26.82;49.33
45074;BME280;31570;51.688;5.860;2022-08-19T04:19:48;101208.25;;;26.79;49.49
45074;BME280;31570;51.688;5.860;2022-08-19T04:22:15;101206.38;;;26.79;49.46
45074;BME280;31570;51.688;5.860;2022-08-19T04:24:41;101203.22;;;26.83;49.27
45074;BME280;31570;51.688;5.860;2022-08-19T04:27:08;101204.47;;;26.80;49.35
45074;BME280;31570;51.688;5.860;2022-08-19T04:29:34;101196.25;;;26.80;49.50
45074;BME280;31570;51.688;5.860;2022-08-19T04:32:01;101203.13;;;26.76;49.31
45074;BME280;31570;51.688;5.860;2022-08-19T04:34:34;101201.25;;;26.76;49.50
45074;BME280;31570;51.688;5.860;2022-08-19T04:37:00;101195.56;;;26.78;49.07
45074;BME280;31570;51.688;5.860;2022-08-19T04:39:28;101192.81;;;26.78;49.39
45074;BME280;31570;51.688;5.860;2022-08-19T04:42:13;101192.16;;;26.76;49.33
45074;BME280;31570;51.688;5.860;2022-08-19T04:44:59;101189.63;;;26.74;49.17
45074;BME280;31570;51.688;5.860;2022-08-19T04:47:26;101189.63;;;26.74;49.11
45074;BME280;31570;51.688;5.860;2022-08-19T04:50:13;101203.13;;;26.76;49.14
45074;BME280;31570;51.688;5.860;2022-08-19T04:52:39;101200.38;;;26.76;49.36
45074;BME280;31570;51.688;5.860;2022-08-19T04:55:09;101201.63;;;26.73;49.38
45074;BME280;31570;51.688;5.860;2022-08-19T04:57:36;101204.16;;;26.75;49.58
45074;BME280;31570;51.688;5.860;2022-08-19T05:00:07;101197.63;;;26.76;49.06
45074;BME280;31570;51.688;5.860;2022-08-19T05:02:33;101207.13;;;26.73;49.49
45074;BME280;31570;51.688;5.860;2022-08-19T05:05:00;101211.75;;;26.73;49.09
45074;BME280;31570;51.688;5.860;2022-08-19T05:07:29;101209.50;;;26.76;49.42
45074;BME280;31570;51.688;5.860;2022-08-19T05:09:56;101212.50;;;26.82;49.08
45074;BME280;31570;51.688;5.860;2022-08-19T05:12:24;101217.16;;;26.81;49.27
45074;BME280;31570;51.688;5.860;2022-08-19T05:14:54;101221.94;;;26.79;49.43
45074;BME280;31570;51.688;5.860;2022-08-19T05:17:22;101219.69;;;26.83;49.01
45074;BME280;31570;51.688;5.860;2022-08-19T05:19:56;101229.81;;;26.82;49.30
45074;BME280;31570;51.688;5.860;2022-08-19T05:22:43;101224.53;;;26.80;49.27
45074;BME280;31570;51.688;5.860;2022-08-19T05:25:11;101222.63;;;26.81;49.19
45074;BME280;31570;51.688;5.860;2022-08-19T05:27:40;101227.25;;;26.80;49.27
45074;BME280;31570;51.688;5.860;2022-08-19T05:30:07;101230.84;;;26.81;49.23
45074;BME280;31570;51.688;5.860;2022-08-19T05:32:34;101230.50;;;26.84;49.38
45074;BME280;31570;51.688;5.860;2022-08-19T05:35:00;101242.63;;;26.90;49.01
45074;BME280;31570;51.688;5.860;2022-08-19T05:37:27;101251.00;;;26.88;48.78
45074;BME280;31570;51.688;5.860;2022-08-19T05:39:54;101247.63;;;26.86;49.19
45074;BME280;31570;51.688;5.860;2022-08-19T05:42:21;101248.00;;;26.83;48.98
45074;BME280;31570;51.688;5.860;2022-08-19T05:44:49;101239.56;;;26.85;49.17
45074;BME280;31570;51.688;5.860;2022-08-19T05:47:16;101238.34;;;26.87;49.17
45074;BME280;31570;51.688;5.860;2022-08-19T05:49:43;101240.72;;;26.90;49.01
45074;BME280;31570;51.688;5.860;2022-08-19T05:52:10;101243.09;;;26.93;48.71
45074;BME280;31570;51.688;5.860;2022-08-19T05:54:38;101250.28;;;26.94;48.66
45074;BME280;31570;51.688;5.860;2022-08-19T05:57:06;101241.00;;;26.95;48.74
45074;BME280;31570;51.688;5.860;2022-08-19T05:59:34;101238.94;;;26.97;48.60
45074;BME280;31570;51.688;5.860;2022-08-19T06:02:04;101237.25;;;26.96;49.02
45074;BME280;31570;51.688;5.860;2022-08-19T06:04:31;101246.31;;;26.97;48.82
45074;BME280;31570;51.688;5.860;2022-08-19T06:07:01;101240.81;;;26.97;48.84
45074;BME280;31570;51.688;5.860;2022-08-19T06:09:41;101243.75;;;26.95;48.68
45074;BME280;31570;51.688;5.860;2022-08-19T06:12:25;101240.16;;;26.95;49.03
45074;BME280;31570;51.688;5.860;2022-08-19T06:14:54;101243.09;;;26.93;48.70
45074;BME280;31570;51.688;5.860;2022-08-19T06:17:27;101244.78;;;26.94;48.90
45074;BME280;31570;51.688;5.860;2022-08-19T06:19:53;101238.44;;;26.94;49.13
45074;BME280;31570;51.688;5.860;2022-08-19T06:22:19;101252.16;;;26.94;49.21
45074;BME280;31570;51.688;5.860;2022-08-19T06:24:46;101251.13;;;26.95;49.06
45074;BME280;31570;51.688;5.860;2022-08-19T06:27:12;101255.75;;;26.94;49.02
45074;BME280;31570;51.688;5.860;2022-08-19T06:29:39;101249.44;;;26.94;48.99
45074;BME280;31570;51.688;5.860;2022-08-19T06:32:05;101249.22;;;26.95;49.10
45074;BME280;31570;51.688;5.860;2022-08-19T06:34:32;101246.47;;;26.95;49.07
45074;BME280;31570;51.688;5.860;2022-08-19T06:37:00;101252.81;;;26.96;48.88
45074;BME280;31570;51.688;5.860;2022-08-19T06:39:28;101258.97;;;26.98;48.79
45074;BME280;31570;51.688;5.860;2022-08-19T06:41:56;101260.19;;;26.95;48.86
45074;BME280;31570;51.688;5.860;2022-08-19T06:44:29;101259.19;;;26.96;49.05
45074;BME280;31570;51.688;5.860;2022-08-19T06:47:06;101254.91;;;26.94;49.13
45074;BME280;31570;51.688;5.860;2022-08-19T06:49:39;101255.38;;;26.97;48.72
45074;BME280;31570;51.688;5.860;2022-08-19T06:52:07;101248.59;;;26.93;48.80
45074;BME280;31570;51.688;5.860;2022-08-19T06:54:33;101255.75;;;26.94;48.96
45074;BME280;31570;51.688;5.860;2022-08-19T06:57:11;101249.22;;;26.95;48.78
45074;BME280;31570;51.688;5.860;2022-08-19T06:59:41;101258.31;;;26.96;49.17
45074;BME280;31570;51.688;5.860;2022-08-19T07:02:07;101241.00;;;26.95;49.02
45074;BME280;31570;51.688;5.860;2022-08-19T07:04:35;101255.56;;;26.96;48.78
45074;BME280;31570;51.688;5.860;2022-08-19T07:07:06;101255.56;;;26.96;49.21
45074;BME280;31570;51.688;5.860;2022-08-19T07:09:46;101251.13;;;26.95;49.00
45074;BME280;31570;51.688;5.860;2022-08-19T07:12:25;101257.44;;;26.95;48.86
45074;BME280;31570;51.688;5.860;2022-08-19T07:14:52;101254.72;;;26.95;48.95
45074;BME280;31570;51.688;5.860;2022-08-19T07:17:19;101258.13;;;26.97;48.79
45074;BME280;31570;51.688;5.860;2022-08-19T07:19:46;101257.28;;;26.97;48.80
45074;BME280;31570;51.688;5.860;2022-08-19T07:22:14;101270.16;;;26.96;49.02
45074;BME280;31570;51.688;5.860;2022-08-19T07:24:42;101272.91;;;26.96;49.16
45074;BME280;31570;51.688;5.860;2022-08-19T07:27:17;101271.84;;;26.97;48.77
45074;BME280;31570;51.688;5.860;2022-08-19T07:29:52;101272.50;;;26.99;49.00
45074;BME280;31570;51.688;5.860;2022-08-19T07:32:22;101269.75;;;26.99;48.98
45074;BME280;31570;51.688;5.860;2022-08-19T07:34:50;101271.84;;;26.97;48.76
45074;BME280;31570;51.688;5.860;2022-08-19T07:37:19;101269.75;;;26.99;49.02
45074;BME280;31570;51.688;5.860;2022-08-19T07:39:46;101271.66;;;26.99;48.81
45074;BME280;31570;51.688;5.860;2022-08-19T07:42:12;101275.66;;;26.96;48.99
45074;BME280;31570;51.688;5.860;2022-08-19T07:44:41;101278.38;;;26.96;48.84
45074;BME280;31570;51.688;5.860;2022-08-19T07:47:15;101282.81;;;26.97;49.19
45074;BME280;31570;51.688;5.860;2022-08-19T07:50:03;101288.78;;;27.01;48.87
45074;BME280;31570;51.688;5.860;2022-08-19T07:52:33;101292.59;;;27.00;49.10
45074;BME280;31570;51.688;5.860;2022-08-19T07:55:00;101286.63;;;26.96;49.23
45074;BME280;31570;51.688;5.860;2022-08-19T07:57:30;101290.00;;;26.98;48.82
45074;BME280;31570;51.688;5.860;2022-08-19T07:59:57;101281.59;;;27.00;48.90
45074;BME280;31570;51.688;5.860;2022-08-19T08:02:37;101299.09;;;26.99;49.12
45074;BME280;31570;51.688;5.860;2022-08-19T08:05:08;101293.13;;;26.95;49.02
45074;BME280;31570;51.688;5.860;2022-08-19T08:07:53;101294.66;;;26.98;49.02
45074;BME280;31570;51.688;5.860;2022-08-19T08:10:38;101299.94;;;26.99;49.19
45074;BME280;31570;51.688;5.860;2022-08-19T08:13:07;101298.06;;;27.00;49.01
45074;BME280;31570;51.688;5.860;2022-08-19T08:15:37;101303.56;;;27.00;49.02
45074;BME280;31570;51.688;5.860;2022-08-19T08:18:08;101302.31;;;27.02;48.91
45074;BME280;31570;51.688;5.860;2022-08-19T08:20:35;101302.31;;;27.02;48.91
45074;BME280;31570;51.688;5.860;2022-08-19T08:23:02;101311.59;;;27.01;49.10
45074;BME280;31570;51.688;5.860;2022-08-19T08:25:47;101313.28;;;27.02;49.08
45074;BME280;31570;51.688;5.860;2022-08-19T08:28:15;101316.72;;;27.04;48.74
45074;BME280;31570;51.688;5.860;2022-08-19T08:30:43;101310.38;;;27.04;49.02
45074;BME280;31570;51.688;5.860;2022-08-19T08:33:10;101315.00;;;27.03;48.85
45074;BME280;31570;51.688;5.860;2022-08-19T08:35:37;101318.78;;;27.02;48.94
45074;BME280;31570;51.688;5.860;2022-08-19T08:38:03;101318.13;;;27.00;48.99
45074;BME280;31570;51.688;5.860;2022-08-19T08:40:33;101321.72;;;27.01;49.09
45074;BME280;31570;51.688;5.860;2022-08-19T08:45:38;101322.41;;;27.03;48.91
45074;BME280;31570;51.688;5.860;2022-08-19T08:48:13;101319.44;;;27.04;48.85
45074;BME280;31570;51.688;5.860;2022-08-19T08:50:49;101316.03;;;27.02;49.16
45074;BME280;31570;51.688;5.860;2022-08-19T08:53:19;101320.50;;;27.03;48.98
45074;BME280;31570;51.688;5.860;2022-08-19T08:55:57;101327.69;;;27.04;48.81
45074;BME280;31570;51.688;5.860;2022-08-19T08:58:26;101313.28;;;27.02;49.06
45074;BME280;31570;51.688;5.860;2022-08-19T09:00:56;101320.66;;;27.02;48.96
45074;BME280;31570;51.688;5.860;2022-08-19T09:03:25;101311.59;;;27.01;48.86
45074;BME280;31570;51.688;5.860;2022-08-19T09:05:59;101315.00;;;27.03;48.80
45074;BME280;31570;51.688;5.860;2022-08-19T09:08:39;101315.84;;;27.04;49.13
45074;BME280;31570;51.688;5.860;2022-08-19T09:11:10;101318.78;;;27.02;48.74
45074;BME280;31570;51.688;5.860;2022-08-19T09:16:33;101310.38;;;27.04;48.75
45074;BME280;31570;51.688;5.860;2022-08-19T09:19:04;101312.25;;;27.03;48.82
45074;BME280;31570;51.688;5.860;2022-08-19T09:21:31;101304.03;;;27.03;49.08
45074;BME280;31570;51.688;5.860;2022-08-19T09:24:00;101312.06;;;27.05;49.03
45074;BME280;31570;51.688;5.860;2022-08-19T09:26:29;101318.41;;;27.06;48.79
45074;BME280;31570;51.688;5.860;2022-08-19T09:29:16;101320.50;;;27.03;48.74
45074;BME280;31570;51.688;5.860;2022-08-19T09:31:43;101313.75;;;27.06;48.63
45074;BME280;31570;51.688;5.860;2022-08-19T09:34:09;101314.81;;;27.05;48.59
45074;BME280;31570;51.688;5.860;2022-08-19T09:36:47;101310.38;;;27.04;48.91
45074;BME280;31570;51.688;5.860;2022-08-19T09:39:16;101315.00;;;27.03;48.80
45074;BME280;31570;51.688;5.860;2022-08-19T09:41:42;101323.53;;;27.09;48.90
45074;BME280;31570;51.688;5.860;2022-08-19T09:44:14;101312.75;;;27.07;48.83
45074;BME280;31570;51.688;5.860;2022-08-19T09:46:40;101312.53;;;27.09;48.71
45074;BME280;31570;51.688;5.860;2022-08-19T09:49:07;101300.72;;;27.08;48.34
45074;BME280;31570;51.688;5.860;2022-08-19T09:51:33;101320.78;;;27.09;48.69
45074;BME280;31570;51.688;5.860;2022-08-19T09:54:01;101318.72;;;27.11;48.41
45074;BME280;31570;51.688;5.860;2022-08-19T09:56:30;101334.34;;;27.10;48.47
45074;BME280;31570;51.688;5.860;2022-08-19T09:58:57;101340.66;;;27.11;48.39
45074;BME280;31570;51.688;5.860;2022-08-19T10:01:25;101332.44;;;27.11;48.59
45074;BME280;31570;51.688;5.860;2022-08-19T10:03:52;101335.34;;;27.09;48.72
45074;BME280;31570;51.688;5.860;2022-08-19T10:06:20;101341.72;;;27.10;48.68
45074;BME280;31570;51.688;5.860;2022-08-19T10:09:10;101337.44;;;27.07;48.38
45074;BME280;31570;51.688;5.860;2022-08-19T10:11:39;101343.56;;;27.09;48.36
45074;BME280;31570;51.688;5.860;2022-08-19T10:14:17;101344.47;;;27.10;48.32
45074;BME280;31570;51.688;5.860;2022-08-19T10:16:48;101341.72;;;27.10;48.26
45074;BME280;31570;51.688;5.860;2022-08-19T10:19:15;101329.69;;;27.11;48.31
45074;BME280;31570;51.688;5.860;2022-08-19T10:21:51;101339.34;;;27.07;48.41
45074;BME280;31570;51.688;5.860;2022-08-19T10:24:18;101334.69;;;27.07;48.27
45074;BME280;31570;51.688;5.860;2022-08-19T10:26:46;101324.56;;;27.08;48.33
45074;BME280;31570;51.688;5.860;2022-08-19T10:29:22;101329.00;;;27.09;48.20
45074;BME280;31570;51.688;5.860;2022-08-19T10:32:02;101322.50;;;27.10;48.30
45074;BME280;31570;51.688;5.860;2022-08-19T10:34:29;101331.59;;;27.10;48.03
45074;BME280;31570;51.688;5.860;2022-08-19T10:36:57;101330.75;;;27.10;48.08
45074;BME280;31570;51.688;5.860;2022-08-19T10:39:27;101326.25;;;27.09;48.20
45074;BME280;31570;51.688;5.860;2022-08-19T10:42:06;101341.03;;;27.08;48.57
45074;BME280;31570;51.688;5.860;2022-08-19T10:44:33;101343.78;;;27.08;48.49
45074;BME280;31570;51.688;5.860;2022-08-19T10:47:02;101332.81;;;27.08;48.49
45074;BME280;31570;51.688;5.860;2022-08-19T10:49:49;101328.00;;;27.10;48.48
45074;BME280;31570;51.688;5.860;2022-08-19T10:52:37;101326.94;;;27.11;48.42
45074;BME280;31570;51.688;5.860;2022-08-19T10:55:05;101333.28;;;27.11;47.99
45074;BME280;31570;51.688;5.860;2022-08-19T10:57:54;101322.66;;;27.08;48.13
45074;BME280;31570;51.688;5.860;2022-08-19T11:00:28;101326.25;;;27.09;48.16
45074;BME280;31570;51.688;5.860;2022-08-19T11:02:57;101323.53;;;27.09;48.26
45074;BME280;31570;51.688;5.860;2022-08-19T11:05:23;101321.47;;;27.11;47.82
45074;BME280;31570;51.688;5.860;2022-08-19T11:07:50;101328.50;;;27.13;48.15
45074;BME280;31570;51.688;5.860;2022-08-19T11:10:18;101323.88;;;27.14;48.05
45074;BME280;31570;51.688;5.860;2022-08-19T11:12:47;101329.50;;;27.12;47.90
45074;BME280;31570;51.688;5.860;2022-08-19T11:15:14;101328.50;;;27.13;47.72
45074;BME280;31570;51.688;5.860;2022-08-19T11:17:40;101325.75;;;27.13;47.72
45074;BME280;31570;51.688;5.860;2022-08-19T11:20:07;101317.66;;;27.12;47.73
45074;BME280;31570;51.688;5.860;2022-08-19T11:22:35;101317.53;;;27.13;47.79
45074;BME280;31570;51.688;5.860;2022-08-19T11:25:07;101319.41;;;27.13;47.67
45074;BME280;31570;51.688;5.860;2022-08-19T11:27:37;101326.59;;;27.14;47.73
45074;BME280;31570;51.688;5.860;2022-08-19T11:30:03;101331.25;;;27.13;48.14
45074;BME280;31570;51.688;5.860;2022-08-19T11:32:33;101320.75;;;27.17;47.93
45074;BME280;31570;51.688;5.860;2022-08-19T11:35:00;101322.81;;;27.15;48.06
45074;BME280;31570;51.688;5.860;2022-08-19T11:37:27;101317.31;;;27.15;47.88
45074;BME280;31570;51.688;5.860;2022-08-19T11:39:53;101309.44;;;27.12;47.85
45074;BME280;31570;51.688;5.860;2022-08-19T11:42:20;101312.03;;;27.13;47.78
45074;BME280;31570;51.688;5.860;2022-08-19T11:45:05;101313.72;;;27.14;47.79
45074;BME280;31570;51.688;5.860;2022-08-19T11:47:32;101312.88;;;27.14;47.73
45074;BME280;31570;51.688;5.860;2022-08-19T11:49:59;101311.00;;;27.14;47.68
45074;BME280;31570;51.688;5.860;2022-08-19T11:52:25;101319.41;;;27.13;47.67
45074;BME280;31570;51.688;5.860;2022-08-19T11:54:52;101310.16;;;27.14;48.00
45074;BME280;31570;51.688;5.860;2022-08-19T11:57:19;101313.53;;;27.16;47.66
45074;BME280;31570;51.688;5.860;2022-08-19T11:59:49;101319.69;;;27.18;47.71
45074;BME280;31570;51.688;5.860;2022-08-19T12:02:22;101303.25;;;27.18;47.66
45074;BME280;31570;51.688;5.860;2022-08-19T12:04:49;101302.56;;;27.16;47.64
45074;BME280;31570;51.688;5.860;2022-08-19T12:07:15;101308.25;;;27.14;47.68
45074;BME280;31570;51.688;5.860;2022-08-19T12:09:42;101312.50;;;27.17;47.54
45074;BME280;31570;51.688;5.860;2022-08-19T12:12:11;101310.41;;;27.19;47.75
45074;BME280;31570;51.688;5.860;2022-08-19T12:14:37;101298.78;;;27.17;47.53
45074;BME280;31570;51.688;5.860;2022-08-19T12:17:04;101304.28;;;27.17;47.67
45074;BME280;31570;51.688;5.860;2022-08-19T12:19:35;101301.72;;;27.15;47.51
45074;BME280;31570;51.688;5.860;2022-08-19T12:22:02;101305.13;;;27.17;47.89
45074;BME280;31570;51.688;5.860;2022-08-19T12:24:32;101304.28;;;27.17;47.81
45074;BME280;31570;51.688;5.860;2022-08-19T12:26:59;101302.56;;;27.16;47.67
45074;BME280;31570;51.688;5.860;2022-08-19T12:29:28;101303.44;;;27.16;47.81
45074;BME280;31570;51.688;5.860;2022-08-19T12:31:56;101304.28;;;27.17;47.56
45074;BME280;31570;51.688;5.860;2022-08-19T12:34:29;101318.66;;;27.19;47.42
45074;BME280;31570;51.688;5.860;2022-08-19T12:36:57;101306.81;;;27.18;47.81
45074;BME280;31570;51.688;5.860;2022-08-19T12:39:23;101305.78;;;27.19;47.81
45074;BME280;31570;51.688;5.860;2022-08-19T12:41:50;101307.50;;;27.20;47.65
45074;BME280;31570;51.688;5.860;2022-08-19T12:44:21;101295.00;;;27.18;47.58
45074;BME280;31570;51.688;5.860;2022-08-19T12:46:57;101303.03;;;27.19;47.59
45074;BME280;31570;51.688;5.860;2022-08-19T12:49:23;101298.44;;;27.20;47.72
45074;BME280;31570;51.688;5.860;2022-08-19T12:52:11;101289.13;;;27.21;47.61
45074;BME280;31570;51.688;5.860;2022-08-19T12:54:44;101285.72;;;27.19;47.79
45074;BME280;31570;51.688;5.860;2022-08-19T12:57:11;101290.19;;;27.20;47.46
45074;BME280;31570;51.688;5.860;2022-08-19T12:59:39;101287.44;;;27.20;47.59
45074;BME280;31570;51.688;5.860;2022-08-19T13:02:06;101283.66;;;27.21;47.41
45074;BME280;31570;51.688;5.860;2022-08-19T13:04:35;101270.97;;;27.20;47.43
45074;BME280;31570;51.688;5.860;2022-08-19T13:07:03;101270.97;;;27.20;47.48
45074;BME280;31570;51.688;5.860;2022-08-19T13:09:30;101276.47;;;27.20;47.53
45074;BME280;31570;51.688;5.860;2022-08-19T13:11:56;101269.25;;;27.19;47.65